Time;durP1;ratioP1;P1;durP2;ratioP2;P2;SDS_P1;SDS_P2;PMS_P1;PMS_P2;Temp;Humidity;BMP_temperature;BMP_pressure;BME280_temperature;BME280_humidity;BME280_pressure;Samples;Min_cycle;Max_cycle;Signal;HPM_P1;HPM_P2
2023/06/29 00:01:54;;;;;;;;;13.00;12.00;;;;;20.72;69.43;101607.28;5050258;28;8830;-65
2023/06/29 00:04:21;;;;;;;;;14.50;12.25;;;;;20.69;69.46;101610.50;5049952;28;8826;-66
2023/06/29 00:06:49;;;;;;;;;11.50;10.50;;;;;20.69;69.45;101613.25;5043388;28;8801;-64
2023/06/29 00:09:16;;;;;;;;;13.25;12.25;;;;;20.69;69.41;101603.13;5037045;28;8833;-65
2023/06/29 00:11:43;;;;;;;;;15.75;13.00;;;;;20.68;69.62;101603.38;5049958;28;8848;-65
2023/06/29 00:14:09;;;;;;;;;13.25;10.50;;;;;20.64;69.49;101613.97;5045336;28;8828;-64
2023/06/29 00:16:36;;;;;;;;;11.50;11.25;;;;;20.62;69.53;101613.41;5048293;28;8814;-64
2023/06/29 00:19:03;;;;;;;;;9.00;9.00;;;;;20.62;69.68;101605.19;5050265;28;8941;-64
2023/06/29 00:21:29;;;;;;;;;13.00;10.00;;;;;20.62;69.76;101598.88;5049360;28;8849;-64
2023/06/29 00:23:56;;;;;;;;;11.25;9.75;;;;;20.64;69.86;101597.56;5039330;28;8825;-66
2023/06/29 00:26:22;;;;;;;;;13.00;11.00;;;;;20.64;69.87;101583.88;5047541;28;8826;-64
2023/06/29 00:28:48;;;;;;;;;8.75;8.00;;;;;20.64;69.67;101589.34;5045670;28;8833;-65
2023/06/29 00:31:15;;;;;;;;;13.00;10.50;;;;;20.62;69.88;101590.66;5036381;28;8872;-64
2023/06/29 00:33:43;;;;;;;;;11.75;10.00;;;;;20.62;69.90;101591.53;5044898;28;8963;-64
2023/06/29 00:36:09;;;;;;;;;9.00;8.50;;;;;20.64;70.21;101594.81;5048745;28;8818;-64
2023/06/29 00:38:35;;;;;;;;;8.75;8.75;;;;;20.63;70.03;101592.34;5044318;28;8834;-66
2023/06/29 00:41:02;;;;;;;;;11.25;9.25;;;;;20.62;70.04;101597.00;5044086;28;8869;-65
2023/06/29 00:43:29;;;;;;;;;13.00;11.25;;;;;20.62;70.22;101590.66;5048141;28;8844;-66
2023/06/29 00:45:56;;;;;;;;;13.00;11.50;;;;;20.62;70.11;101580.56;5049976;28;8841;-66
2023/06/29 00:48:23;;;;;;;;;9.00;8.00;;;;;20.63;70.23;101584.97;5038370;28;8851;-65
2023/06/29 00:50:50;;;;;;;;;9.50;8.00;;;;;20.65;70.25;101582.81;5038055;28;8910;-66
2023/06/29 00:53:16;;;;;;;;;9.50;6.50;;;;;20.65;70.19;101571.84;5035614;28;8838;-69
2023/06/29 00:55:44;;;;;;;;;7.25;5.25;;;;;20.64;70.59;101581.16;5045201;28;8861;-67
2023/06/29 00:58:11;;;;;;;;;6.00;6.00;;;;;20.64;70.59;101572.94;5048604;28;8818;-67
2023/06/29 01:00:38;;;;;;;;;17.00;14.50;;;;;20.61;70.44;101570.69;5038272;28;8852;-68
2023/06/29 01:03:05;;;;;;;;;12.50;10.25;;;;;20.59;70.54;101561.09;5041787;28;8825;-68
2023/06/29 01:05:33;;;;;;;;;12.50;12.00;;;;;20.59;70.68;101569.28;5040456;28;8900;-68
2023/06/29 01:08:16;;;;;;;;;9.25;7.75;;;;;20.58;70.82;101567.59;5049842;28;8826;-65
2023/06/29 01:10:45;;;;;;;;;16.50;15.25;;;;;20.54;70.70;101564.56;5040003;28;8844;-68
2023/06/29 01:13:13;;;;;;;;;12.50;11.25;;;;;20.53;70.90;101560.13;5048636;28;8849;-68
2023/06/29 01:15:40;;;;;;;;;10.00;8.50;;;;;20.54;70.98;101555.50;5042304;28;8840;-68
2023/06/29 01:18:11;;;;;;;;;9.25;9.00;;;;;20.54;71.10;101550.88;5034195;28;9515;-68
2023/06/29 01:20:40;;;;;;;;;9.00;9.00;;;;;20.54;71.22;101550.88;5048917;28;9560;-67
2023/06/29 01:23:14;;;;;;;;;11.00;11.00;;;;;20.54;71.10;101555.50;5049692;28;8852;-67
2023/06/29 01:25:42;;;;;;;;;12.50;10.50;;;;;20.56;71.04;101553.34;5051756;28;8830;-67
2023/06/29 01:28:10;;;;;;;;;16.50;15.00;;;;;20.54;71.12;101560.97;5051187;28;8826;-68
2023/06/29 01:30:39;;;;;;;;;12.75;12.75;;;;;20.53;71.21;101557.41;5052684;28;9600;-66
2023/06/29 01:33:07;;;;;;;;;10.25;8.75;;;;;20.48;71.44;101555.38;5049563;28;8842;-68
2023/06/29 01:35:34;;;;;;;;;15.50;14.75;;;;;20.45;71.67;101544.91;5051997;28;8912;-68
2023/06/29 01:38:13;;;;;;;;;16.50;16.50;;;;;20.42;71.62;101545.41;5046220;28;8840;-67
2023/06/29 01:40:43;;;;;;;;;10.25;10.25;;;;;20.43;71.76;101543.50;5052450;28;8845;-68
2023/06/29 01:43:10;;;;;;;;;21.50;13.75;;;;;20.39;71.80;101536.84;5049100;28;8830;-67
2023/06/29 01:45:38;;;;;;;;;13.00;12.75;;;;;20.42;71.94;101536.38;5050428;28;8830;-67
2023/06/29 01:48:05;;;;;;;;;16.25;14.00;;;;;20.41;71.77;101534.69;5045161;28;9533;-68
2023/06/29 01:50:32;;;;;;;;;19.00;16.75;;;;;20.36;72.14;101527.22;5052359;28;8838;-66
2023/06/29 01:52:58;;;;;;;;;16.00;13.00;;;;;20.37;72.10;101533.50;5051637;28;8930;-69
2023/06/29 01:55:25;;;;;;;;;14.50;13.75;;;;;20.37;72.21;101525.31;5051648;28;8858;-67
2023/06/29 01:57:51;;;;;;;;;14.75;14.25;;;;;20.36;72.42;101526.41;5044864;28;8834;-67
2023/06/29 02:00:18;;;;;;;;;10.25;8.25;;;;;20.37;72.25;101522.56;5048104;28;8826;-65
2023/06/29 02:02:44;;;;;;;;;14.00;12.00;;;;;20.38;72.48;101527.00;5046902;28;8842;-68
2023/06/29 02:05:11;;;;;;;;;15.00;13.75;;;;;20.39;72.38;101521.28;5049146;28;8838;-67
2023/06/29 02:07:38;;;;;;;;;12.25;11.75;;;;;20.39;72.40;101524.00;5026855;28;8932;-67
2023/06/29 02:10:05;;;;;;;;;12.00;11.00;;;;;20.38;72.38;101524.25;5044225;28;8904;-68
2023/06/29 02:12:35;;;;;;;;;14.00;12.25;;;;;20.39;72.52;101520.44;5031106;28;8954;-68
2023/06/29 02:15:02;;;;;;;;;14.50;12.00;;;;;20.39;72.46;101512.25;5043526;28;9835;-69
2023/06/29 02:17:29;;;;;;;;;11.00;11.00;;;;;20.37;72.52;101511.63;5037954;28;8845;-67
2023/06/29 02:19:55;;;;;;;;;12.25;11.25;;;;;20.37;72.66;101507.00;5041138;28;8888;-67
2023/06/29 02:22:22;;;;;;;;;14.25;12.75;;;;;20.37;72.83;101506.16;5039572;28;8915;-69
2023/06/29 02:24:49;;;;;;;;;11.00;10.75;;;;;20.38;72.82;101505.13;5051665;28;8810;-69
2023/06/29 02:27:16;;;;;;;;;10.50;10.50;;;;;20.38;72.88;101497.75;5049007;28;8908;-69
2023/06/29 02:29:43;;;;;;;;;13.00;12.25;;;;;20.40;72.85;101494.75;5041080;28;8829;-69
2023/06/29 02:32:10;;;;;;;;;11.25;11.25;;;;;20.38;72.85;101496.91;5050665;28;8881;-68
2023/06/29 02:34:36;;;;;;;;;13.25;11.75;;;;;20.35;72.93;101492.75;5046818;28;8852;-65
2023/06/29 02:37:03;;;;;;;;;15.25;14.75;;;;;20.37;72.91;101495.22;5030313;28;8841;-69
2023/06/29 02:39:30;;;;;;;;;12.50;11.75;;;;;20.35;73.17;101494.66;5033579;28;8820;-69
2023/06/29 02:41:57;;;;;;;;;11.25;11.25;;;;;20.34;73.24;101485.63;5048704;28;8858;-66
2023/06/29 02:44:24;;;;;;;;;14.75;13.00;;;;;20.34;73.12;101490.28;5051378;28;8818;-67
2023/06/29 02:46:51;;;;;;;;;12.50;12.50;;;;;20.34;73.39;101484.81;5043176;28;8844;-67
2023/06/29 02:49:17;;;;;;;;;17.75;12.00;;;;;20.31;73.29;101488.03;5046829;28;8830;-67
2023/06/29 02:51:46;;;;;;;;;11.00;11.00;;;;;20.31;73.48;101490.75;5050180;28;9684;-67
2023/06/29 02:54:15;;;;;;;;;12.75;10.25;;;;;20.32;73.50;101486.94;5033919;28;8833;-67
2023/06/29 02:56:42;;;;;;;;;14.50;14.25;;;;;20.29;73.56;101482.78;5051901;28;8818;-67
2023/06/29 02:59:09;;;;;;;;;13.50;11.75;;;;;20.29;73.70;101482.78;5044767;28;9006;-65
2023/06/29 03:01:35;;;;;;;;;13.00;9.75;;;;;20.29;73.90;101488.25;5046953;28;8870;-65
2023/06/29 03:04:02;;;;;;;;;13.00;10.75;;;;;20.31;74.36;101488.03;5047437;28;8899;-66
2023/06/29 03:06:29;;;;;;;;;18.00;15.50;;;;;20.27;74.36;101484.94;5050409;28;8848;-67
2023/06/29 03:08:56;;;;;;;;;13.25;12.25;;;;;20.27;74.68;101482.22;5048117;28;8846;-67
2023/06/29 03:11:23;;;;;;;;;14.00;12.75;;;;;20.25;75.25;101473.41;5044926;28;8848;-67
2023/06/29 03:13:55;;;;;;;;;15.75;14.00;;;;;20.22;75.60;101474.75;5045478;28;8849;-66
2023/06/29 03:16:22;;;;;;;;;14.50;13.00;;;;;20.22;75.79;101468.44;5057800;28;8867;-65
2023/06/29 03:18:48;;;;;;;;;14.25;11.00;;;;;20.17;76.11;101458.22;5034445;28;8976;-66
2023/06/29 03:21:21;;;;;;;;;12.00;11.00;;;;;20.16;76.61;101455.72;5044991;28;8951;-69
2023/06/29 03:23:48;;;;;;;;;17.75;14.25;;;;;20.15;76.89;101465.84;5047117;28;8837;-67
2023/06/29 03:26:15;;;;;;;;;14.50;11.25;;;;;20.12;77.20;101460.84;5043045;28;9586;-67
2023/06/29 03:28:41;;;;;;;;;15.00;15.00;;;;;20.12;77.37;101460.84;5049340;28;8866;-67
2023/06/29 03:31:07;;;;;;;;;16.25;13.25;;;;;20.11;77.42;101455.63;5035684;28;8877;-67
2023/06/29 03:33:34;;;;;;;;;18.00;15.25;;;;;20.07;77.55;101458.03;5050933;28;8842;-66
2023/06/29 03:36:01;;;;;;;;;17.50;16.00;;;;;20.04;77.89;101450.31;5048906;28;8887;-67
2023/06/29 03:38:27;;;;;;;;;14.50;13.25;;;;;20.02;78.08;101455.19;5050045;28;8845;-66
2023/06/29 03:40:54;;;;;;;;;20.00;16.00;;;;;20.02;78.33;101449.72;5048872;28;8861;-67
2023/06/29 03:43:20;;;;;;;;;17.00;16.00;;;;;20.02;78.37;101443.44;5050745;28;8911;-65
2023/06/29 03:45:49;;;;;;;;;14.25;12.50;;;;;20.00;78.55;101438.19;5047216;28;8825;-64
2023/06/29 03:48:15;;;;;;;;;15.50;15.50;;;;;20.02;78.63;101444.25;5035332;28;8834;-68
2023/06/29 03:50:42;;;;;;;;;12.75;8.75;;;;;20.00;78.83;101449.94;5034604;28;8883;-66
2023/06/29 03:53:09;;;;;;;;;19.25;16.50;;;;;20.01;78.79;101450.78;5048977;28;8853;-67
2023/06/29 03:55:36;;;;;;;;;14.00;11.25;;;;;20.02;78.84;101449.72;5031223;28;8978;-67
2023/06/29 03:58:02;;;;;;;;;13.25;12.50;;;;;19.99;79.06;101442.84;5046502;28;8849;-67
2023/06/29 04:00:29;;;;;;;;;13.00;11.50;;;;;19.93;79.33;101441.09;5049051;28;8856;-68
2023/06/29 04:02:55;;;;;;;;;12.00;12.00;;;;;19.96;79.19;101442.47;5039043;28;9670;-67
2023/06/29 04:05:22;;;;;;;;;18.00;16.75;;;;;19.95;79.32;101440.84;5049847;28;8818;-67
2023/06/29 04:07:49;;;;;;;;;12.50;10.75;;;;;19.95;79.50;101435.38;5049277;28;8907;-67
2023/06/29 04:10:16;;;;;;;;;12.00;11.25;;;;;19.95;79.45;101427.16;5050098;28;8970;-67
2023/06/29 04:12:42;;;;;;;;;16.50;13.00;;;;;19.95;79.63;101433.47;5041298;28;8943;-67
2023/06/29 04:15:09;;;;;;;;;18.75;14.75;;;;;19.97;79.64;101438.66;5046610;28;8945;-67
2023/06/29 04:17:36;;;;;;;;;19.25;15.75;;;;;19.95;79.86;101429.91;5050219;28;8854;-67
2023/06/29 04:20:03;;;;;;;;;16.00;13.50;;;;;19.94;80.00;101428.25;5050400;28;8870;-66
2023/06/29 04:22:29;;;;;;;;;18.25;13.00;;;;;19.93;80.06;101426.56;5047910;28;8838;-66
2023/06/29 04:24:56;;;;;;;;;18.00;16.00;;;;;19.93;80.44;101426.56;5038645;28;8858;-67
2023/06/29 04:27:22;;;;;;;;;17.00;14.25;;;;;19.95;80.29;101424.44;5043819;28;9559;-67
2023/06/29 04:29:49;;;;;;;;;15.75;14.25;;;;;19.95;80.39;101422.53;5042950;28;8915;-66
2023/06/29 04:32:15;;;;;;;;;14.00;12.00;;;;;19.96;80.18;101421.44;5048598;28;8857;-66
2023/06/29 04:34:42;;;;;;;;;14.00;14.00;;;;;19.97;80.46;101425.00;5042740;28;8981;-67
2023/06/29 04:37:08;;;;;;;;;11.25;11.25;;;;;19.98;80.54;101423.97;5042583;28;8833;-67
2023/06/29 04:39:35;;;;;;;;;16.00;14.25;;;;;19.96;80.19;101418.72;5043954;28;8919;-67
2023/06/29 04:42:03;;;;;;;;;21.75;18.25;;;;;19.95;80.35;101417.06;5049746;28;8856;-65
2023/06/29 04:44:32;;;;;;;;;18.00;17.00;;;;;19.96;80.60;101421.44;5040293;28;8891;-67
2023/06/29 04:47:03;;;;;;;;;20.75;19.25;;;;;19.94;80.63;101417.31;5048833;28;8941;-66
2023/06/29 04:49:36;;;;;;;;;19.50;14.75;;;;;19.95;80.89;101419.78;5047171;28;8806;-67
2023/06/29 04:52:04;;;;;;;;;19.00;18.33;;;;;19.97;80.74;101419.53;5028284;28;8848;-67
2023/06/29 04:54:30;;;;;;;;;18.00;14.25;;;;;19.98;80.73;101413.03;5043291;28;9698;-66
2023/06/29 04:56:57;;;;;;;;;22.75;18.50;;;;;19.97;80.89;101414.06;5049755;28;8830;-66
2023/06/29 04:59:25;;;;;;;;;21.67;17.67;;;;;19.97;80.72;101414.94;5049850;28;8860;-67
2023/06/29 05:01:51;;;;;;;;;19.67;19.67;;;;;19.94;80.69;101420.06;5053185;28;8954;-67
2023/06/29 05:04:18;;;;;;;;;22.50;19.50;;;;;19.92;80.60;101422.19;5046826;28;8924;-67
2023/06/29 05:06:44;;;;;;;;;24.50;20.00;;;;;19.90;80.94;101424.34;5053595;28;10166;-67
2023/06/29 05:09:12;;;;;;;;;22.25;18.50;;;;;19.86;80.92;101413.06;5051821;28;8826;-67
2023/06/29 05:11:39;;;;;;;;;31.00;26.33;;;;;19.86;80.86;101412.22;5042936;28;8836;-66
2023/06/29 05:14:05;;;;;;;;;26.75;22.00;;;;;19.84;80.94;101415.19;5051754;28;8927;-67
2023/06/29 05:16:32;;;;;;;;;28.67;26.00;;;;;19.79;80.57;101403.34;5053564;28;8826;-67
2023/06/29 05:18:58;;;;;;;;;24.75;21.00;;;;;19.76;80.83;101404.63;5052183;28;9071;-67
2023/06/29 05:21:27;;;;;;;;;23.33;21.00;;;;;19.77;80.81;101406.31;5047997;28;8853;-65
2023/06/29 05:23:53;;;;;;;;;30.00;26.00;;;;;19.65;80.76;101400.88;5045147;28;8960;-65
2023/06/29 05:26:20;;;;;;;;;23.75;22.25;;;;;19.68;81.21;101399.56;5051029;28;9177;-67
2023/06/29 05:28:46;;;;;;;;;26.00;20.67;;;;;19.69;80.89;101395.78;5045201;28;9625;-68
2023/06/29 05:31:30;;;;;;;;;21.00;19.33;;;;;19.74;80.59;101401.34;5045562;28;9011;-67
2023/06/29 05:33:56;;;;;;;;;19.00;17.75;;;;;19.76;80.85;101401.91;5059564;28;9038;-68
2023/06/29 05:36:23;;;;;;;;;22.75;17.25;;;;;19.78;80.88;101401.69;5039752;28;8837;-68
2023/06/29 05:38:49;;;;;;;;;18.25;18.25;;;;;19.80;80.79;101402.25;5049587;28;8952;-66
2023/06/29 05:41:16;;;;;;;;;18.67;16.67;;;;;19.78;80.92;101396.22;5045920;28;8873;-67
2023/06/29 05:43:42;;;;;;;;;20.00;18.25;;;;;19.79;81.02;101403.34;5052025;28;8929;-67
2023/06/29 05:46:09;;;;;;;;;27.00;23.00;;;;;19.79;80.86;101400.59;5052375;28;8956;-67
2023/06/29 05:48:35;;;;;;;;;17.25;15.25;;;;;19.79;80.46;101404.16;5052527;28;9875;-67
2023/06/29 05:51:02;;;;;;;;;31.00;23.33;;;;;19.75;80.34;101403.81;5041062;28;8932;-66
2023/06/29 05:53:28;;;;;;;;;26.00;21.33;;;;;19.72;80.46;101404.28;5044629;28;9021;-66
2023/06/29 05:55:55;;;;;;;;;29.00;22.67;;;;;19.71;80.61;101405.38;5050714;28;9123;-67
2023/06/29 05:58:22;;;;;;;;;25.50;22.25;;;;;19.73;80.67;101396.94;5030097;28;8916;-66
2023/06/29 06:00:48;;;;;;;;;25.33;23.33;;;;;19.71;80.55;101399.06;5035174;28;8948;-67
2023/06/29 06:03:15;;;;;;;;;26.33;23.33;;;;;19.73;80.62;101399.69;5040404;28;9800;-66
2023/06/29 06:05:42;;;;;;;;;22.67;22.00;;;;;19.68;80.39;101392.19;5042271;28;9096;-68
2023/06/29 06:08:08;;;;;;;;;25.00;24.33;;;;;19.71;80.59;101396.34;5041388;28;9051;-65
2023/06/29 06:10:35;;;;;;;;;20.50;17.00;;;;;19.71;80.56;101399.91;5041908;28;9073;-67
2023/06/29 06:13:02;;;;;;;;;17.25;16.25;;;;;19.74;80.61;101393.97;5038959;28;8995;-67
2023/06/29 06:15:29;;;;;;;;;24.00;21.67;;;;;19.73;80.70;101397.78;5041144;28;8865;-68
2023/06/29 06:17:56;;;;;;;;;29.33;27.00;;;;;19.69;80.41;101398.50;5042950;28;9916;-66
2023/06/29 06:20:22;;;;;;;;;30.67;25.00;;;;;19.68;80.46;101403.13;5039739;28;9085;-67
2023/06/29 06:22:49;;;;;;;;;31.67;30.33;;;;;19.65;80.48;101402.78;5040670;28;8994;-67
2023/06/29 06:25:17;;;;;;;;;24.00;22.33;;;;;19.66;80.50;101402.53;5031512;28;9235;-66
2023/06/29 06:27:44;;;;;;;;;26.00;24.00;;;;;19.69;80.39;101398.50;5052308;28;8991;-67
2023/06/29 06:30:11;;;;;;;;;29.67;29.33;;;;;19.66;80.34;101402.53;5046583;28;9002;-66
2023/06/29 06:32:41;;;;;;;;;30.00;25.33;;;;;19.67;80.22;101389.72;5037172;28;9208;-68
2023/06/29 06:35:09;;;;;;;;;22.67;22.00;;;;;19.71;80.38;101393.63;5044112;28;9005;-68
2023/06/29 06:37:36;;;;;;;;;25.00;21.00;;;;;19.74;80.40;101393.97;5050923;28;8934;-68
2023/06/29 06:40:07;;;;;;;;;29.00;21.00;;;;;19.73;80.29;101399.69;5038486;28;9017;-69
2023/06/29 06:42:37;;;;;;;;;25.25;22.50;;;;;19.78;80.10;101409.88;5041280;28;9135;-66
2023/06/29 06:45:05;;;;;;;;;26.00;24.00;;;;;19.76;80.10;101400.00;5046787;28;8828;-67
2023/06/29 06:47:34;;;;;;;;;23.50;22.50;;;;;19.73;79.87;101403.25;5040773;28;8998;-67
2023/06/29 06:50:01;;;;;;;;;29.67;28.33;;;;;19.74;79.95;101395.88;5043067;28;8836;-66
2023/06/29 06:52:28;;;;;;;;;28.00;28.00;;;;;19.76;79.94;101389.06;5040639;28;9129;-67
2023/06/29 06:54:56;;;;;;;;;28.00;25.33;;;;;19.81;79.83;101392.97;5043018;28;8995;-66
2023/06/29 06:57:22;;;;;;;;;22.25;17.25;;;;;19.87;79.94;101383.84;5043120;28;9153;-66
2023/06/29 06:59:49;;;;;;;;;29.00;22.67;;;;;19.82;79.77;101391.94;5039073;28;8837;-66
2023/06/29 07:02:15;;;;;;;;;24.33;22.67;;;;;19.85;79.65;101391.44;5042544;28;10127;-66
2023/06/29 07:04:42;;;;;;;;;23.50;20.25;;;;;19.91;79.68;101388.56;5050591;28;9037;-64
2023/06/29 07:07:09;;;;;;;;;22.67;21.67;;;;;19.95;79.52;101380.72;5051625;28;8825;-66
2023/06/29 07:09:35;;;;;;;;;28.33;23.00;;;;;20.00;79.32;101383.53;5032150;28;8974;-66
2023/06/29 07:12:02;;;;;;;;;29.33;25.00;;;;;19.98;78.89;101377.50;5031282;28;8911;-66
2023/06/29 07:14:28;;;;;;;;;29.33;25.00;;;;;20.04;78.88;101381.16;5031487;28;9123;-66
2023/06/29 07:16:55;;;;;;;;;20.00;19.25;;;;;20.08;78.83;101380.41;5031329;28;8990;-66
2023/06/29 07:19:22;;;;;;;;;26.33;22.67;;;;;20.11;78.47;101381.84;5047948;28;8823;-66
2023/06/29 07:21:51;;;;;;;;;33.67;31.67;;;;;20.10;78.58;101380.19;5045447;28;9050;-64
2023/06/29 07:24:21;;;;;;;;;36.33;31.00;;;;;20.02;78.38;101384.13;5047450;28;9921;-65
2023/06/29 07:26:47;;;;;;;;;41.67;38.00;;;;;19.96;78.26;101388.66;5040694;28;9920;-64
2023/06/29 07:29:14;;;;;;;;;33.67;32.00;;;;;19.98;78.30;101386.53;5046238;28;9326;-65
2023/06/29 07:31:40;;;;;;;;;33.33;29.67;;;;;19.98;78.26;101382.97;5034345;28;9320;-65
2023/06/29 07:34:07;;;;;;;;;33.67;30.00;;;;;19.95;78.26;101378.81;5057507;28;9111;-64
2023/06/29 07:36:34;;;;;;;;;37.00;31.67;;;;;19.91;78.25;101388.56;5057808;28;9056;-64
2023/06/29 07:39:01;;;;;;;;;46.00;35.33;;;;;19.83;78.17;101394.41;5068546;28;9279;-65
2023/06/29 07:41:28;;;;;;;;;35.33;31.33;;;;;19.84;78.40;101393.34;5066527;28;9368;-65
2023/06/29 07:43:56;;;;;;;;;36.33;32.67;;;;;19.91;78.43;101383.09;5056182;28;9462;-65
2023/06/29 07:46:23;;;;;;;;;43.00;34.67;;;;;19.95;78.22;101383.44;5067725;28;9440;-65
2023/06/29 07:48:52;;;;;;;;;41.67;34.00;;;;;19.97;78.14;101375.81;5057854;28;10096;-65
2023/06/29 07:51:20;;;;;;;;;35.67;34.00;;;;;20.03;78.11;101384.97;5030656;28;9062;-66
2023/06/29 07:53:46;;;;;;;;;32.67;28.67;;;;;20.08;78.27;101376.84;5029368;28;10032;-65
2023/06/29 07:56:13;;;;;;;;;37.67;34.00;;;;;20.13;78.11;101385.97;5030845;28;8935;-65
2023/06/29 07:58:39;;;;;;;;;27.67;26.67;;;;;20.18;77.97;101377.88;5049077;28;9335;-65
2023/06/29 08:01:08;;;;;;;;;32.00;29.00;;;;;20.22;77.91;101373.59;5050366;28;9325;-65
2023/06/29 08:03:34;;;;;;;;;30.33;28.00;;;;;20.26;77.63;101376.66;5048984;28;9255;-65
2023/06/29 08:06:21;;;;;;;;;44.00;39.67;;;;;20.28;77.47;101377.22;5050560;28;9154;-65
2023/06/29 08:08:51;;;;;;;;;36.00;34.33;;;;;20.30;77.47;101379.75;5046873;28;9432;-65
2023/06/29 08:11:17;;;;;;;;;39.25;33.75;;;;;20.23;77.39;101375.25;5030284;28;9242;-65
2023/06/29 08:13:44;;;;;;;;;41.25;35.25;;;;;20.23;77.62;101377.97;5030324;28;9397;-65
2023/06/29 08:16:10;;;;;;;;;37.00;33.00;;;;;20.27;77.63;101377.50;5028821;28;9525;-66
2023/06/29 08:18:37;;;;;;;;;41.00;35.00;;;;;20.29;77.39;101370.69;5030417;28;9301;-65
2023/06/29 08:21:04;;;;;;;;;39.33;34.67;;;;;20.27;77.34;101367.38;5028947;28;9170;-65
2023/06/29 08:23:32;;;;;;;;;39.67;32.33;;;;;20.22;77.63;101370.84;5028216;28;9452;-65
2023/06/29 08:25:58;;;;;;;;;45.00;37.00;;;;;20.11;77.71;101370.91;5045011;28;9585;-65
2023/06/29 08:28:25;;;;;;;;;43.67;34.00;;;;;20.23;77.76;101368.94;5050130;28;9381;-65
2023/06/29 08:30:52;;;;;;;;;35.00;32.67;;;;;20.28;77.48;101373.66;5037835;28;9154;-64
2023/06/29 08:33:18;;;;;;;;;46.00;39.33;;;;;20.23;77.23;101372.50;5033174;28;9399;-65
2023/06/29 08:35:45;;;;;;;;;44.67;34.00;;;;;20.25;77.42;101359.44;5030510;28;9314;-66
2023/06/29 08:38:11;;;;;;;;;41.67;32.00;;;;;20.32;77.34;101362.00;5030188;28;9231;-65
2023/06/29 08:40:38;;;;;;;;;41.25;36.25;;;;;20.29;77.52;101364.38;5029789;28;9318;-65
2023/06/29 08:43:05;;;;;;;;;39.00;36.33;;;;;20.32;77.28;101359.25;5040028;28;9450;-65
2023/06/29 08:45:31;;;;;;;;;50.50;40.25;;;;;20.33;77.32;101366.38;5046945;28;9316;-65
2023/06/29 08:48:00;;;;;;;;;39.67;35.33;;;;;20.35;77.24;101360.69;5058594;28;9779;-65
2023/06/29 08:50:30;;;;;;;;;37.00;32.00;;;;;20.41;77.31;101354.22;5057975;28;9463;-65
2023/06/29 08:52:57;;;;;;;;;37.33;31.00;;;;;20.55;77.10;101361.06;5055142;28;9254;-65
2023/06/29 08:55:24;;;;;;;;;45.75;38.75;;;;;20.58;76.73;101360.56;5063755;28;9085;-64
2023/06/29 08:57:53;;;;;;;;;37.00;32.67;;;;;20.58;77.00;101357.84;5049438;28;9531;-65
2023/06/29 09:00:20;;;;;;;;;46.67;40.00;;;;;20.63;76.78;101359.81;5041246;28;9216;-65
2023/06/29 09:02:51;;;;;;;;;47.00;38.33;;;;;20.51;77.18;101362.63;5040372;28;9478;-65
2023/06/29 09:05:19;;;;;;;;;36.33;36.00;;;;;20.60;77.13;101360.31;5045362;28;9254;-65
2023/06/29 09:07:45;;;;;;;;;40.67;36.00;;;;;20.64;76.75;101354.09;5045974;28;10019;-66
2023/06/29 09:10:12;;;;;;;;;34.33;33.33;;;;;20.79;76.60;101356.25;5029987;28;9265;-65
2023/06/29 09:12:39;;;;;;;;;33.67;32.33;;;;;20.88;76.53;101357.47;5028004;28;9178;-65
2023/06/29 09:15:10;;;;;;;;;44.33;38.00;;;;;20.90;75.87;101360.81;5029358;28;9013;-66
2023/06/29 09:17:36;;;;;;;;;30.00;30.00;;;;;20.97;75.68;101361.44;5029709;28;9397;-66
2023/06/29 09:20:15;;;;;;;;;30.33;27.67;;;;;21.04;75.70;101344.84;5037673;28;8985;-66
2023/06/29 09:22:42;;;;;;;;;27.67;27.67;;;;;21.16;75.36;101347.50;5043086;28;9065;-66
2023/06/29 09:25:11;;;;;;;;;41.67;37.33;;;;;21.19;75.20;101345.06;5033061;28;8872;-66
2023/06/29 09:28:04;;;;;;;;;27.67;26.00;;;;;21.29;74.87;101346.28;5029587;28;10008;-65
2023/06/29 09:30:37;;;;;;;;;35.33;31.67;;;;;21.26;74.58;101347.63;5040961;28;9020;-65
2023/06/29 09:33:07;;;;;;;;;37.00;33.00;;;;;21.12;74.27;101349.91;5029664;28;10125;-65
2023/06/29 09:35:36;;;;;;;;;33.00;28.00;;;;;21.19;74.29;101345.06;5042553;28;9057;-65
2023/06/29 09:38:02;;;;;;;;;33.25;30.50;;;;;21.30;74.25;101345.19;5047594;28;9178;-66
2023/06/29 09:40:30;;;;;;;;;30.67;26.67;;;;;21.37;74.01;101346.72;5034583;28;8828;-64
2023/06/29 09:42:57;;;;;;;;;30.00;28.33;;;;;21.37;74.10;101352.19;5029433;28;8942;-65
2023/06/29 09:45:28;;;;;;;;;35.67;31.00;;;;;21.34;73.91;101352.69;5043875;28;9147;-65
2023/06/29 09:47:54;;;;;;;;;31.67;27.33;;;;;21.28;73.70;101350.94;5053022;28;8921;-65
2023/06/29 09:50:24;;;;;;;;;25.25;24.00;;;;;21.38;73.43;101362.03;5039239;28;9686;-65
2023/06/29 09:52:51;;;;;;;;;25.50;20.50;;;;;21.45;73.52;101357.22;5052145;28;8834;-65
2023/06/29 09:55:29;;;;;;;;;22.75;22.75;;;;;21.49;73.34;101360.28;5052705;28;8856;-65
2023/06/29 09:57:57;;;;;;;;;32.50;25.50;;;;;21.51;73.44;101360.00;5052697;28;8833;-65
2023/06/29 10:00:23;;;;;;;;;29.00;25.50;;;;;21.51;73.23;101358.09;5051798;28;9685;-64
2023/06/29 10:02:50;;;;;;;;;21.75;21.00;;;;;21.55;73.01;101353.78;5052758;28;8856;-66
2023/06/29 10:05:16;;;;;;;;;21.00;18.25;;;;;21.60;72.93;101356.59;5052131;28;8830;-65
2023/06/29 10:07:43;;;;;;;;;20.75;18.75;;;;;21.64;72.54;101351.44;5051503;28;8845;-64
2023/06/29 10:10:14;;;;;;;;;20.25;20.25;;;;;21.56;71.94;101352.72;5041328;28;9527;-65
2023/06/29 10:12:41;;;;;;;;;21.75;20.75;;;;;21.53;71.82;101355.94;5032296;28;8921;-65
2023/06/29 10:15:09;;;;;;;;;26.00;25.25;;;;;21.60;72.03;101353.84;5038079;28;8930;-65
2023/06/29 10:17:52;;;;;;;;;28.25;24.50;;;;;21.55;71.61;101351.03;5032509;28;8916;-65
2023/06/29 10:20:21;;;;;;;;;23.75;22.00;;;;;21.55;71.46;101352.94;5037288;28;8848;-67
2023/06/29 10:22:49;;;;;;;;;22.50;22.25;;;;;21.56;71.43;101352.72;5032354;28;8837;-65
2023/06/29 10:25:19;;;;;;;;;28.25;23.25;;;;;21.53;71.28;101346.91;5039258;28;8838;-66
2023/06/29 10:27:48;;;;;;;;;21.25;20.75;;;;;21.65;71.32;101348.44;5052190;28;8836;-65
2023/06/29 10:30:20;;;;;;;;;22.50;19.25;;;;;21.69;71.02;101346.00;5052194;28;8844;-66
2023/06/29 10:32:50;;;;;;;;;28.25;20.75;;;;;21.81;70.97;101351.34;5016824;28;8844;-65
2023/06/29 10:35:17;;;;;;;;;19.00;17.75;;;;;21.74;70.63;101343.31;5032107;28;8933;-65
2023/06/29 10:37:48;;;;;;;;;27.00;24.50;;;;;21.80;70.53;101336.00;5049467;28;8828;-65
2023/06/29 10:40:24;;;;;;;;;23.00;20.50;;;;;21.92;70.15;101336.69;5050544;28;8862;-66
2023/06/29 10:42:55;;;;;;;;;27.75;27.00;;;;;21.86;69.80;101337.69;5039391;28;8956;-65
2023/06/29 10:45:22;;;;;;;;;29.00;26.50;;;;;21.76;69.33;101332.13;5034933;28;8868;-65
2023/06/29 10:47:56;;;;;;;;;22.00;20.75;;;;;21.80;69.27;101338.75;5032126;28;8817;-65
2023/06/29 10:50:40;;;;;;;;;27.00;23.50;;;;;21.81;69.17;101332.16;5031607;28;8909;-64
2023/06/29 10:53:12;;;;;;;;;21.75;20.50;;;;;21.78;69.13;101324.47;5031836;28;8844;-65
2023/06/29 10:55:54;;;;;;;;;24.25;19.25;;;;;21.75;68.71;101341.41;5031870;28;8856;-65
2023/06/29 10:58:26;;;;;;;;;15.50;14.50;;;;;21.73;68.44;101328.78;5031295;28;8829;-64
2023/06/29 11:00:53;;;;;;;;;19.00;18.00;;;;;21.77;68.96;101328.28;5031260;28;8875;-65
2023/06/29 11:03:22;;;;;;;;;24.50;24.00;;;;;21.74;69.38;101335.09;5048124;28;8829;-66
2023/06/29 11:05:50;;;;;;;;;19.50;17.75;;;;;21.75;69.86;101338.66;5051822;28;8848;-66
2023/06/29 11:08:20;;;;;;;;;17.75;17.75;;;;;21.69;70.63;101333.13;5051322;28;8830;-65
2023/06/29 11:10:47;;;;;;;;;21.50;17.50;;;;;21.67;70.97;101340.78;5051256;28;8907;-67
2023/06/29 11:13:13;;;;;;;;;17.50;17.00;;;;;21.65;71.29;101333.91;5051279;28;8968;-66
2023/06/29 11:15:40;;;;;;;;;17.00;14.75;;;;;21.68;71.61;101339.72;5040663;28;8820;-65
2023/06/29 11:18:08;;;;;;;;;17.00;15.00;;;;;21.68;72.19;101341.63;5035149;28;8859;-66
2023/06/29 11:20:39;;;;;;;;;20.50;17.50;;;;;21.68;72.07;101341.63;5041214;28;8858;-66